Airfield :
LOGIN :

Register | Disclaimer

   EN    FR    IT 

 










Legend :    VFR   Marginal VFR   IFR   Intensive IFR   Very Intensive IFR
Visi :
Ceiling :
>= 8 km
>= 3000ft
5 to 8 km
1000 to 3000 ft
1500m to 5 km
500 to 1000 ft
800 to 1500m
200 to 500 ft
< 800m
< 200 ft
Symbols :   Thunderstorms  Fog  Heavy snow  Heavy precipitations  Wind > 20 kt
SIGMETs :     Misc.  Thunderstorms  Icing  Turbulence  Mountain Waves  Volcanic Ashes






- Airport Elevation : 74 ft
- IATA code : MRS


LFML - Marseille / Marignane

CURRENT METAR :
  • 181330Z AUTO 32038KT 9000 3900 NSC 14/M00 Q1011 TEMPO 32035G50KT

EXPIRED METARs :
  • 181300Z AUTO 32038KT 9999 4400 NSC 14/00 Q1011 TEMPO 32035G50KT
  • 181230Z AUTO 32035G46KT 9999 FEW018 14/00 Q1012 NOSIG
  • 181200Z AUTO 32036G47KT CAVOK 14/M00 Q1012 NOSIG
  • 181130Z AUTO 32037KT CAVOK 13/M00 Q1012 TEMPO 32035G50KT
  • 181100Z AUTO 31029G40KT 9999 ////// 14/03 Q1012
  • 181030Z AUTO 31030KT 9999 4900 FEW050 13/01 Q1012 TEMPO 32035G50KT
  • 181000Z AUTO 31033KT 8000 SCT050 13/02 Q1012 TEMPO 32035G50KT
  • 180930Z AUTO 32033KT 8000 NSC 12/01 Q1012 BECMG 32025G40KT
  • 180900Z AUTO 32033KT 9999 4200 NSC 12/01 Q1012 BECMG 32025G40KT

TAF AMD TAF LFML
Valid from the 18 at 09:00 until the 19 at 15:00 UTC


180918Z 1809/1915 32025G40KT CAVOK TX19/1915Z TN04/1905Z
PROB40
TEMPO 1809/1817 32035G50KT
BECMG 1820/1822 34015G25KT
TEMPO 1822/1903 36010KT
TEMPO 1903/1909 VRB03KT
PROB30
TEMPO 1912/1915 32020G35KT
ATIS : +33 4 42 31 15 15



MET'MAP, your aeronautical weather chart ! - Copyright ORBIFLY December 2007 - Disclaimer

ORBIFLY MET'MAP TEAM :

Programming & Development : Alexandra Zaïnal
Original concept : Baudouin d'Aumeries
Technical & hardware support : Manuel Goepfert
Assistance : Marc-Olivier Méhu




SOURCES & CREDITS :

   NOAA